Time;durP1;ratioP1;P1;durP2;ratioP2;P2;SDS_P1;SDS_P2;PMS_P1;PMS_P2;Temp;Humidity;BMP_temperature;BMP_pressure;BME280_temperature;BME280_humidity;BME280_pressure;Samples;Min_cycle;Max_cycle;Signal;HPM_P1;HPM_P2
2020/12/03 05:13:48;;;;;;;16.37;3.40;;;18.70;48.70;;;;;;4222958;27;20134;-57
2020/12/03 05:16:16;;;;;;;11.52;2.60;;;18.70;49.70;;;;;;4193744;28;20054;-57
2020/12/03 05:18:51;;;;;;;21.95;3.95;;;18.70;49.70;;;;;;4194798;28;20139;-58
2020/12/03 05:21:18;;;;;;;31.88;5.28;;;18.70;49.90;;;;;;4195108;28;20090;-59
2020/12/03 05:23:38;;;;;;;21.85;5.43;;;18.80;50.10;;;;;;4210434;28;20147;-59
2020/12/03 05:26:15;;;;;;;22.90;4.22;;;18.80;50.10;;;;;;4225265;28;20054;-57
2020/12/03 05:28:47;;;;;;;19.58;4.53;;;18.80;50.20;;;;;;4211842;28;20127;-57
2020/12/03 05:31:26;;;;;;;24.15;3.92;;;18.80;50.50;;;;;;4211329;28;20087;-57
2020/12/03 05:33:46;;;;;;;17.00;3.40;;;18.80;50.70;;;;;;4211392;28;20205;-57
2020/12/03 05:36:33;;;;;;;23.50;3.42;;;18.80;50.70;;;;;;4210115;28;20090;-57
2020/12/03 05:39:03;;;;;;;14.98;3.60;;;18.70;50.60;;;;;;4178070;28;20122;-57
2020/12/03 05:41:29;;;;;;;26.65;3.45;;;18.70;50.50;;;;;;4210906;28;20063;-58
2020/12/03 05:43:59;;;;;;;17.52;3.75;;;18.70;50.30;;;;;;4211202;28;20063;-50
2020/12/03 05:46:28;;;;;;;28.15;5.05;;;18.70;50.20;;;;;;4211170;28;20067;-50
2020/12/03 05:49:06;;;;;;;18.35;4.43;;;18.70;50.20;;;;;;4211051;28;20143;-50
2020/12/03 05:51:33;;;;;;;21.13;4.32;;;18.70;50.00;;;;;;4209246;28;20091;-48
2020/12/03 05:53:57;;;;;;;19.48;4.07;;;18.70;49.90;;;;;;4211047;28;20416;-47
2020/12/03 05:56:25;;;;;;;22.77;4.05;;;18.70;49.80;;;;;;4209798;28;20055;-47
2020/12/03 05:58:46;;;;;;;16.30;3.72;;;18.70;49.70;;;;;;4209690;28;20110;-49
2020/12/03 06:01:14;;;;;;;17.98;4.32;;;18.70;49.60;;;;;;4210921;28;20081;-56
2020/12/03 06:04:15;;;;;;;25.08;3.92;;;18.70;49.80;;;;;;4210864;28;20123;-56
2020/12/03 06:07:14;;;;;;;19.50;6.78;;;18.70;50.00;;;;;;4210880;28;20133;-56
2020/12/03 06:10:01;;;;;;;37.17;9.88;;;18.70;47.10;;;;;;4209640;28;20652;-56
2020/12/03 06:12:41;;;;;;;14.90;10.30;;;18.50;44.00;;;;;;4209400;28;20098;-56
2020/12/03 06:15:18;;;;;;;12.55;11.23;;;18.30;40.90;;;;;;4210093;28;20075;-55
2020/12/03 06:18:09;;;;;;;14.23;12.38;;;18.00;38.20;;;;;;4210659;28;20136;-55
2020/12/03 06:20:52;;;;;;;12.90;11.50;;;17.60;38.00;;;;;;4193215;28;20059;-55
2020/12/03 06:23:54;;;;;;;12.98;11.65;;;17.40;37.90;;;;;;4192512;28;20064;-55
2020/12/03 06:26:35;;;;;;;13.10;11.10;;;17.20;37.80;;;;;;4181140;28;20056;-55
2020/12/03 06:29:49;;;;;;;13.60;11.27;;;17.00;38.20;;;;;;4181744;28;20060;-55
2020/12/03 06:33:03;;;;;;;12.23;11.00;;;17.10;38.90;;;;;;4170759;28;20109;-55
2020/12/03 06:35:36;;;;;;;14.05;11.05;;;17.20;38.50;;;;;;4173620;28;20055;-55
2020/12/03 06:38:13;;;;;;;13.77;12.27;;;17.20;37.80;;;;;;4194654;28;20123;-55
2020/12/03 06:40:39;;;;;;;13.75;11.13;;;17.10;37.70;;;;;;4197284;28;20625;-55
2020/12/03 06:43:13;;;;;;;12.85;11.50;;;17.10;38.00;;;;;;4196850;28;20184;-55
2020/12/03 06:45:46;;;;;;;14.38;12.25;;;17.10;38.30;;;;;;4197199;28;20066;-55
2020/12/03 06:48:30;;;;;;;;;;;17.10;38.10;;;;;;4197446;28;20114;-56
2020/12/03 06:51:32;;;;;;;14.93;12.57;;;17.10;38.20;;;;;;4179121;28;19931;-55
2020/12/03 06:54:34;;;;;;;12.55;10.85;;;17.00;37.90;;;;;;4180781;28;20076;-55
2020/12/03 06:57:31;;;;;;;14.93;11.75;;;16.90;37.50;;;;;;4182176;28;20171;-55
2020/12/03 07:00:31;;;;;;;13.52;12.02;;;16.80;37.60;;;;;;4183777;28;20567;-55
2020/12/03 07:03:52;;;;;;;12.52;11.18;;;16.80;37.70;;;;;;4181993;28;20060;-55
2020/12/03 07:07:02;;;;;;;14.93;12.65;;;16.80;37.80;;;;;;4180681;28;20060;-55
2020/12/03 07:10:08;;;;;;;14.10;11.75;;;16.80;38.10;;;;;;4181455;28;20064;-55
2020/12/03 07:12:53;;;;;;;12.00;10.80;;;16.90;38.30;;;;;;4180283;28;20068;-55
2020/12/03 07:15:45;;;;;;;13.80;12.25;;;16.80;38.10;;;;;;4180350;28;20457;-55
2020/12/03 07:18:55;;;;;;;13.80;11.68;;;16.80;38.00;;;;;;4192171;28;20149;-55
2020/12/03 07:21:46;;;;;;;15.05;12.80;;;16.70;38.20;;;;;;4192759;28;20147;-55
2020/12/03 07:24:15;;;;;;;15.32;12.00;;;16.70;38.20;;;;;;4195721;28;20521;-54
2020/12/03 07:27:17;;;;;;;15.95;10.80;;;16.60;39.20;;;;;;4195607;28;20136;-51
2020/12/03 07:29:52;;;;;;;11.27;7.95;;;16.70;41.00;;;;;;4194939;28;20070;-48
2020/12/03 07:32:26;;;;;;;12.52;8.30;;;16.90;42.30;;;;;;4196187;28;20074;-49
2020/12/03 07:34:57;;;;;;;10.30;6.95;;;17.00;42.40;;;;;;4195880;28;20592;-50
2020/12/03 07:37:45;;;;;;;8.73;7.57;;;17.00;42.30;;;;;;4194387;28;20611;-50
2020/12/03 07:40:06;;;;;;;9.18;7.28;;;17.10;42.10;;;;;;4195729;28;20688;-49
2020/12/03 07:42:29;;;;;;;11.27;7.40;;;17.10;42.10;;;;;;4195073;28;20460;-49
2020/12/03 07:44:53;;;;;;;9.02;6.63;;;17.20;42.50;;;;;;4194551;28;20696;-49
2020/12/03 07:47:31;;;;;;;9.25;6.45;;;17.20;42.30;;;;;;4194583;28;20141;-49
2020/12/03 07:49:55;;;;;;;8.90;5.57;;;17.20;42.30;;;;;;4196953;28;20067;-50
2020/12/03 07:52:32;;;;;;;8.85;6.22;;;17.20;42.40;;;;;;4195835;28;20143;-49
2020/12/03 07:55:28;;;;;;;8.15;5.65;;;17.20;42.50;;;;;;4195815;28;20059;-49
2020/12/03 07:57:53;;;;;;;9.05;5.97;;;17.20;42.60;;;;;;4195674;28;20488;-49
2020/12/03 08:00:49;;;;;;;7.55;5.68;;;17.30;42.80;;;;;;4194964;28;20171;-49
2020/12/03 08:03:10;;;;;;;7.53;5.57;;;17.30;43.00;;;;;;4161482;28;20137;-49
2020/12/03 08:05:56;;;;;;;7.43;5.07;;;17.30;43.10;;;;;;4195859;28;20060;-48
2020/12/03 08:08:36;;;;;;;6.97;5.30;;;17.30;43.20;;;;;;4196320;28;20059;-48
2020/12/03 08:10:56;;;;;;;5.05;4.47;;;17.30;43.30;;;;;;4194657;28;20874;-48
2020/12/03 08:13:28;;;;;;;5.53;4.32;;;17.30;43.30;;;;;;4194537;28;20595;-48
2020/12/03 08:15:57;;;;;;;6.53;4.15;;;17.30;43.40;;;;;;4195660;28;20067;-48
2020/12/03 08:18:45;;;;;;;6.60;4.70;;;17.30;43.40;;;;;;4195063;28;20055;-48
2020/12/03 08:21:09;;;;;;;6.90;4.72;;;17.40;43.50;;;;;;4196135;28;20518;-47
2020/12/03 08:23:32;;;;;;;7.40;4.80;;;17.40;43.60;;;;;;4195147;28;20502;-48
2020/12/03 08:25:52;;;;;;;6.03;5.00;;;17.40;43.60;;;;;;4195791;28;20402;-48
2020/12/03 08:28:24;;;;;;;5.32;4.32;;;17.40;43.60;;;;;;4195360;28;20059;-48
2020/12/03 08:30:47;;;;;;;6.07;4.63;;;17.40;43.60;;;;;;4195507;28;20517;-48
2020/12/03 08:33:15;;;;;;;6.32;5.30;;;17.40;43.60;;;;;;4194066;28;20082;-48
2020/12/03 08:35:36;;;;;;;7.00;6.28;;;17.40;43.60;;;;;;4194184;28;20109;-48
2020/12/03 08:38:00;;;;;;;7.97;6.53;;;17.40;43.10;;;;;;4194319;28;20137;-49
2020/12/03 08:40:27;;;;;;;8.23;5.95;;;17.40;43.00;;;;;;4194710;28;20534;-47
2020/12/03 08:42:47;;;;;;;7.55;6.00;;;17.40;43.10;;;;;;4192488;28;20149;-50
2020/12/03 08:45:10;;;;;;;7.40;6.70;;;17.40;42.90;;;;;;4193314;28;20059;-48
2020/12/03 08:47:41;;;;;;;7.70;6.90;;;17.30;42.50;;;;;;4194741;28;20059;-50
2020/12/03 08:50:13;;;;;;;7.05;5.97;;;17.40;42.60;;;;;;4193140;28;20055;-49
2020/12/03 08:52:36;;;;;;;8.73;6.63;;;17.30;42.50;;;;;;4194115;28;20063;-49
2020/12/03 08:55:05;;;;;;;7.38;6.40;;;17.40;42.40;;;;;;4194829;28;20133;-48
2020/12/03 08:57:28;;;;;;;;;;;17.30;42.30;;;;;;4195416;28;20059;-48
2020/12/03 08:59:54;;;;;;;6.85;5.32;;;17.30;42.30;;;;;;4179447;28;20469;-48
2020/12/03 09:02:19;;;;;;;8.07;5.95;;;17.30;42.40;;;;;;4193533;28;20152;-49
2020/12/03 09:04:45;;;;;;;6.65;5.80;;;17.30;42.70;;;;;;4194508;28;20147;-48
2020/12/03 09:07:09;;;;;;;7.30;5.10;;;17.30;42.70;;;;;;4194688;28;20063;-48
2020/12/03 09:09:31;;;;;;;8.00;5.45;;;17.30;42.80;;;;;;4195513;28;20066;-47
2020/12/03 09:11:55;;;;;;;6.13;4.57;;;17.30;42.90;;;;;;4193734;28;20780;-48
2020/12/03 09:14:16;;;;;;;6.38;5.40;;;17.40;43.00;;;;;;4186056;28;20055;-48
2020/12/03 09:16:37;;;;;;;7.47;5.38;;;17.30;42.80;;;;;;4178024;28;20103;-48
2020/12/03 09:18:58;;;;;;;11.75;5.78;;;17.40;42.70;;;;;;4179517;28;20056;-48
2020/12/03 09:21:26;;;;;;;7.82;6.07;;;17.40;42.40;;;;;;4179313;28;20068;-48
2020/12/03 09:23:51;;;;;;;11.50;5.53;;;17.30;42.20;;;;;;4177416;28;20110;-48
2020/12/03 09:26:18;;;;;;;6.28;4.65;;;17.30;42.40;;;;;;4190172;28;20052;-48
2020/12/03 09:28:44;;;;;;;6.88;4.75;;;17.30;42.80;;;;;;4193903;28;20110;-50
2020/12/03 09:31:04;;;;;;;5.55;5.00;;;17.30;42.80;;;;;;4194013;28;20108;-47
2020/12/03 09:33:27;;;;;;;7.30;5.20;;;17.30;42.90;;;;;;4195184;28;20055;-47
2020/12/03 09:35:51;;;;;;;6.90;5.07;;;17.30;43.10;;;;;;4194369;28;20055;-47
2020/12/03 09:38:16;;;;;;;6.53;5.15;;;17.40;43.50;;;;;;4192240;28;20166;-46
2020/12/03 09:40:43;;;;;;;6.45;4.40;;;17.40;43.20;;;;;;4194162;28;20602;-46
2020/12/03 09:43:05;;;;;;;6.20;4.82;;;17.40;43.10;;;;;;4194300;28;20056;-46
2020/12/03 09:45:35;;;;;;;4.57;3.92;;;17.50;43.00;;;;;;4192974;28;20055;-46
2020/12/03 09:47:58;;;;;;;5.95;4.38;;;17.60;43.10;;;;;;4195437;28;20071;-46
2020/12/03 09:50:21;;;;;;;;;;;17.60;43.20;;;;;;4195096;28;20086;-46
2020/12/03 09:52:43;;;;;;;5.28;3.45;;;17.60;43.20;;;;;;4194929;28;19971;-46
2020/12/03 09:55:12;;;;;;;4.80;3.63;;;17.60;43.30;;;;;;4194879;28;20406;-46
2020/12/03 09:57:35;;;;;;;5.40;3.67;;;17.70;43.30;;;;;;4195006;28;20127;-46
2020/12/03 09:59:55;;;;;;;;;;;17.70;43.30;;;;;;4194830;28;20145;-46
2020/12/03 10:03:19;;;;;;;3.95;2.75;;;17.70;43.30;;;;;;4211194;28;19931;-46
2020/12/03 10:06:00;;;;;;;4.32;3.08;;;17.80;43.40;;;;;;4179539;28;20098;-46
2020/12/03 10:09:19;;;;;;;3.67;3.10;;;17.80;43.60;;;;;;4198150;28;20060;-46
2020/12/03 10:12:26;;;;;;;2.55;2.33;;;17.80;43.50;;;;;;4188088;28;20594;-46
2020/12/03 10:15:31;;;;;;;3.65;2.58;;;17.90;43.50;;;;;;4198519;28;20059;-46
2020/12/03 10:18:22;;;;;;;3.50;2.50;;;18.00;43.70;;;;;;4196658;28;20423;-46
2020/12/03 10:20:43;;;;;;;4.70;2.30;;;18.00;43.70;;;;;;4192615;28;20097;-46
2020/12/03 10:23:28;;;;;;;2.97;2.30;;;18.00;43.70;;;;;;4196310;28;20579;-47
2020/12/03 10:25:59;;;;;;;3.50;2.40;;;18.00;43.70;;;;;;4196914;28;20102;-46
2020/12/03 10:28:23;;;;;;;;;;;18.00;43.70;;;;;;4198115;28;20574;-46
2020/12/03 10:30:53;;;;;;;3.08;2.38;;;18.00;43.70;;;;;;4196786;28;19932;-46
2020/12/03 10:33:16;;;;;;;2.92;2.63;;;18.00;43.80;;;;;;4196966;28;20146;-46
2020/12/03 10:35:44;;;;;;;3.70;2.50;;;18.00;43.80;;;;;;4196836;28;20139;-48
2020/12/03 10:38:15;;;;;;;3.13;2.25;;;18.10;43.90;;;;;;4195605;28;20160;-46
2020/12/03 10:40:35;;;;;;;2.83;2.00;;;18.10;43.90;;;;;;4195598;28;20059;-46
2020/12/03 10:43:05;;;;;;;2.38;2.05;;;18.10;43.90;;;;;;4195411;28;20055;-46
2020/12/03 10:45:34;;;;;;;2.60;2.15;;;18.10;43.90;;;;;;4193590;28;20127;-47
2020/12/03 10:48:05;;;;;;;2.10;1.85;;;18.10;44.00;;;;;;4195392;28;20067;-46
2020/12/03 10:50:54;;;;;;;2.58;2.08;;;18.10;44.00;;;;;;4196081;28;20101;-47
2020/12/03 10:53:21;;;;;;;2.72;2.10;;;18.10;44.00;;;;;;4196444;28;20167;-46
2020/12/03 10:55:47;;;;;;;2.08;1.88;;;18.10;44.00;;;;;;4187885;28;20073;-47
2020/12/03 10:58:13;;;;;;;2.22;1.88;;;18.10;44.60;;;;;;4186443;28;20516;-48
2020/12/03 11:00:37;;;;;;;3.80;2.53;;;18.20;44.10;;;;;;4186696;28;20552;-47
2020/12/03 11:03:08;;;;;;;2.30;1.88;;;18.10;44.00;;;;;;4192411;28;20083;-48
2020/12/03 11:05:28;;;;;;;3.47;1.98;;;18.10;44.10;;;;;;4188328;28;20118;-46
2020/12/03 11:07:54;;;;;;;2.50;1.48;;;18.10;44.10;;;;;;4186189;28;20125;-46
2020/12/03 11:10:15;;;;;;;2.03;1.58;;;18.10;44.10;;;;;;4192177;28;20212;-47
2020/12/03 11:12:37;;;;;;;3.03;1.95;;;18.20;44.10;;;;;;4195368;28;20075;-46
2020/12/03 11:15:05;;;;;;;2.40;1.80;;;18.20;44.10;;;;;;4194682;28;20229;-47
2020/12/03 11:17:53;;;;;;;7.20;2.25;;;18.20;44.10;;;;;;4195748;28;20059;-46
2020/12/03 11:20:22;;;;;;;2.80;1.65;;;18.20;44.10;;;;;;4196519;28;20137;-46
2020/12/03 11:23:09;;;;;;;2.58;2.10;;;18.20;44.00;;;;;;4194993;28;20062;-46
2020/12/03 11:25:32;;;;;;;2.67;1.90;;;18.20;43.90;;;;;;4194629;28;20055;-46
2020/12/03 11:28:00;;;;;;;2.35;1.58;;;18.20;43.90;;;;;;4195560;28;20063;-47
2020/12/03 11:30:24;;;;;;;2.67;2.00;;;18.20;43.90;;;;;;4195423;28;20071;-47
2020/12/03 11:32:48;;;;;;;3.15;2.22;;;18.20;43.80;;;;;;4196515;28;20111;-46
2020/12/03 11:35:23;;;;;;;2.40;2.00;;;18.20;43.80;;;;;;4195249;28;20141;-46
2020/12/03 11:37:43;;;;;;;3.05;2.20;;;18.20;43.70;;;;;;4194797;28;20063;-47
2020/12/03 11:40:06;;;;;;;2.17;1.97;;;18.20;43.70;;;;;;4195679;28;20059;-46
2020/12/03 11:42:37;;;;;;;1.90;1.70;;;18.20;43.70;;;;;;4196028;28;20094;-46
2020/12/03 11:45:34;;;;;;;2.85;2.28;;;18.20;43.80;;;;;;4196419;28;20578;-46
2020/12/03 11:48:15;;;;;;;1.92;1.60;;;18.20;43.80;;;;;;4196176;28;20063;-46
2020/12/03 11:50:39;;;;;;;2.60;2.40;;;18.20;43.90;;;;;;4195489;28;20559;-46
2020/12/03 11:53:01;;;;;;;2.65;2.10;;;18.10;44.00;;;;;;4193172;28;20075;-46
2020/12/03 11:55:24;;;;;;;2.83;2.38;;;18.20;44.00;;;;;;4195473;28;20058;-46
2020/12/03 11:57:44;;;;;;;2.92;2.10;;;18.20;43.80;;;;;;4194910;28;20095;-46
2020/12/03 12:00:19;;;;;;;3.55;2.42;;;18.20;44.20;;;;;;4194285;28;20079;-47
2020/12/03 12:02:42;;;;;;;2.40;1.75;;;18.20;43.60;;;;;;4194570;28;20063;-46
2020/12/03 12:05:07;;;;;;;3.47;2.03;;;18.20;43.60;;;;;;4192632;28;20059;-46
2020/12/03 12:07:35;;;;;;;2.88;2.03;;;18.20;43.60;;;;;;4187728;28;20121;-46
2020/12/03 12:10:11;;;;;;;2.55;2.25;;;18.20;43.60;;;;;;4198700;28;20063;-47
2020/12/03 12:12:33;;;;;;;2.97;2.00;;;18.30;43.60;;;;;;4185622;28;20477;-47
2020/12/03 12:14:54;;;;;;;2.10;1.80;;;18.30;43.60;;;;;;4185002;28;20063;-47
2020/12/03 12:17:18;;;;;;;2.70;2.08;;;18.30;43.60;;;;;;4185308;28;20063;-46
2020/12/03 12:19:43;;;;;;;2.15;1.90;;;18.30;44.10;;;;;;4180169;28;20052;-46
2020/12/03 12:22:07;;;;;;;5.30;2.03;;;18.30;43.60;;;;;;4176208;28;20130;-46
2020/12/03 12:24:30;;;;;;;2.22;1.80;;;18.30;43.60;;;;;;4177250;28;20055;-47
2020/12/03 12:26:52;;;;;;;3.20;1.83;;;18.40;43.70;;;;;;4194766;28;20059;-47
2020/12/03 12:29:13;;;;;;;4.75;2.17;;;18.30;43.70;;;;;;4187669;28;20052;-49
2020/12/03 12:31:35;;;;;;;3.38;1.95;;;18.40;44.30;;;;;;4185310;28;20141;-48
2020/12/03 12:33:58;;;;;;;3.28;1.90;;;18.40;44.20;;;;;;4186309;28;20048;-48
2020/12/03 12:36:21;;;;;;;4.13;2.10;;;18.40;44.40;;;;;;4175648;28;20154;-51
2020/12/03 12:38:42;;;;;;;3.57;2.10;;;18.40;44.80;;;;;;4177162;28;20221;-51
2020/12/03 12:41:03;;;;;;;3.85;2.45;;;18.40;45.10;;;;;;4178527;28;20517;-48
2020/12/03 12:43:24;;;;;;;5.53;2.03;;;18.40;45.80;;;;;;4184325;28;20133;-47
2020/12/03 12:45:44;;;;;;;5.32;2.30;;;18.50;46.10;;;;;;4184026;28;20220;-48
2020/12/03 12:48:05;;;;;;;;;;;18.50;45.90;;;;;;4183406;28;20103;-48
2020/12/03 12:50:30;;;;;;;2.88;1.85;;;18.50;45.70;;;;;;4184870;28;19931;-49
2020/12/03 12:52:53;;;;;;;5.80;2.00;;;18.50;45.90;;;;;;4184475;28;20047;-48
2020/12/03 12:55:15;;;;;;;3.45;2.30;;;18.50;46.00;;;;;;4186648;28;20076;-47
2020/12/03 12:57:39;;;;;;;5.40;1.80;;;18.50;46.00;;;;;;4183223;28;20043;-47
2020/12/03 13:00:05;;;;;;;7.75;2.30;;;18.50;46.00;;;;;;4184259;28;20055;-47
2020/12/03 13:02:25;;;;;;;2.97;1.85;;;18.60;46.00;;;;;;4190624;28;20051;-48
2020/12/03 13:04:48;;;;;;;3.20;1.92;;;18.50;45.90;;;;;;4181501;28;20408;-47
2020/12/03 13:07:12;;;;;;;6.63;1.90;;;18.60;46.00;;;;;;4186275;28;20082;-47
2020/12/03 13:09:35;;;;;;;3.88;2.03;;;18.60;46.10;;;;;;4187032;28;20052;-47
2020/12/03 13:11:56;;;;;;;;;;;18.60;46.10;;;;;;4191766;28;20141;-47
2020/12/03 13:14:17;;;;;;;6.20;1.90;;;18.60;46.60;;;;;;4183316;28;19974;-47
2020/12/03 13:16:40;;;;;;;4.53;1.90;;;18.60;46.20;;;;;;4184413;28;20056;-48
2020/12/03 13:19:01;;;;;;;6.30;2.45;;;18.60;46.40;;;;;;4185575;28;20078;-51
2020/12/03 13:21:27;;;;;;;5.25;2.05;;;18.60;46.30;;;;;;4182775;28;20395;-47
2020/12/03 13:23:47;;;;;;;4.32;2.13;;;18.60;46.30;;;;;;4181596;28;20048;-47
2020/12/03 13:26:16;;;;;;;5.13;2.20;;;18.60;46.10;;;;;;4185502;28;20063;-47
2020/12/03 13:28:37;;;;;;;4.63;1.63;;;18.70;46.80;;;;;;4184217;28;20141;-48
2020/12/03 13:30:58;;;;;;;7.55;2.20;;;18.70;46.30;;;;;;4187065;28;20060;-48
2020/12/03 13:33:18;;;;;;;7.18;1.83;;;18.70;46.50;;;;;;4183804;28;20414;-52
2020/12/03 13:35:39;;;;;;;6.97;2.63;;;18.70;46.50;;;;;;4185548;28;20708;-50
2020/12/03 13:37:59;;;;;;;8.73;2.07;;;18.70;46.40;;;;;;4188670;28;21075;-51
2020/12/03 13:40:23;;;;;;;8.20;2.47;;;18.70;46.30;;;;;;4188811;28;20056;-49
2020/12/03 13:42:46;;;;;;;6.80;2.33;;;18.70;46.40;;;;;;4189738;28;20066;-50
2020/12/03 13:45:06;;;;;;;7.55;2.30;;;18.70;46.30;;;;;;4188298;28;20141;-51
2020/12/03 13:47:28;;;;;;;10.57;2.55;;;18.70;46.30;;;;;;4185689;28;20164;-49
2020/12/03 13:49:50;;;;;;;6.07;2.33;;;18.70;46.40;;;;;;4197267;28;20513;-50
2020/12/03 13:52:11;;;;;;;5.60;2.03;;;18.80;46.40;;;;;;4197184;28;20521;-51
2020/12/03 13:54:35;;;;;;;6.82;1.90;;;18.80;46.40;;;;;;4196774;28;20132;-50
2020/12/03 13:56:55;;;;;;;3.78;1.83;;;18.80;46.40;;;;;;4196286;28;20059;-50
2020/12/03 13:59:17;;;;;;;3.92;2.17;;;18.80;46.50;;;;;;4196884;28;20055;-50
2020/12/03 14:01:38;;;;;;;5.72;2.80;;;18.80;46.50;;;;;;4195857;28;20115;-50
2020/12/03 14:03:59;;;;;;;4.07;2.30;;;18.80;46.50;;;;;;4197445;28;20194;-50
2020/12/03 14:06:21;;;;;;;5.78;2.50;;;18.80;46.60;;;;;;4197294;28;20082;-50
2020/12/03 14:08:45;;;;;;;7.65;2.90;;;18.80;46.70;;;;;;4193155;28;20119;-49
2020/12/03 14:11:05;;;;;;;6.40;2.70;;;18.80;46.70;;;;;;4193941;28;20135;-48
2020/12/03 14:13:29;;;;;;;6.95;3.10;;;18.80;46.70;;;;;;4197173;28;20387;-52
2020/12/03 14:15:52;;;;;;;6.07;2.75;;;18.80;46.70;;;;;;4198460;28;20476;-52
2020/12/03 14:18:12;;;;;;;9.85;3.13;;;18.80;47.00;;;;;;4174999;28;20586;-53
2020/12/03 14:20:34;;;;;;;5.27;3.00;;;18.80;46.90;;;;;;4192321;28;20135;-53
2020/12/03 14:22:56;;;;;;;7.05;3.03;;;18.90;47.00;;;;;;4197374;28;20059;-53
2020/12/03 14:25:17;;;;;;;5.43;2.80;;;18.90;47.00;;;;;;4196186;28;20056;-53
2020/12/03 14:27:37;;;;;;;8.98;2.90;;;18.90;47.00;;;;;;4197543;28;20090;-53
2020/12/03 14:29:57;;;;;;;5.03;2.95;;;18.90;47.00;;;;;;4196860;28;20068;-52
2020/12/03 14:32:19;;;;;;;6.23;2.90;;;18.90;47.10;;;;;;4181635;28;20553;-49
2020/12/03 14:34:39;;;;;;;5.57;2.78;;;18.90;47.10;;;;;;4184467;28;20414;-47
2020/12/03 14:37:01;;;;;;;7.95;3.20;;;18.90;47.10;;;;;;4196767;28;20133;-47
2020/12/03 14:39:24;;;;;;;6.05;3.22;;;18.90;47.10;;;;;;4189375;28;20175;-48
2020/12/03 14:41:47;;;;;;;9.32;3.33;;;18.90;47.10;;;;;;4183682;28;20059;-52
2020/12/03 14:44:09;;;;;;;5.85;3.33;;;18.90;47.00;;;;;;4194063;28;20129;-52
2020/12/03 14:46:33;;;;;;;8.95;3.35;;;18.90;46.90;;;;;;4196978;28;20106;-51
2020/12/03 14:48:55;;;;;;;7.93;3.80;;;18.90;46.90;;;;;;4198338;28;20094;-52
2020/12/03 14:51:16;;;;;;;11.37;5.40;;;19.00;47.00;;;;;;4198759;28;20051;-51
2020/12/03 14:53:39;;;;;;;9.93;4.07;;;19.00;47.10;;;;;;4196186;28;20671;-51
2020/12/03 14:56:02;;;;;;;10.07;5.05;;;19.00;47.30;;;;;;4198526;28;20059;-51
2020/12/03 14:58:25;;;;;;;13.10;5.40;;;19.00;47.40;;;;;;4198200;28;20115;-52
2020/12/03 15:00:49;;;;;;;12.60;5.55;;;19.00;47.60;;;;;;4198048;28;20068;-51
2020/12/03 15:03:13;;;;;;;14.55;5.63;;;19.00;47.70;;;;;;4197923;28;20102;-51
2020/12/03 15:05:45;;;;;;;10.48;5.70;;;19.00;47.70;;;;;;4196076;28;20561;-51
2020/12/03 15:08:18;;;;;;;12.20;6.72;;;19.00;47.80;;;;;;4197633;28;20058;-52
2020/12/03 15:10:42;;;;;;;11.80;6.43;;;19.00;47.90;;;;;;4198159;28;20063;-51
2020/12/03 15:13:02;;;;;;;16.20;8.10;;;19.00;47.90;;;;;;4192589;28;20115;-51
2020/12/03 15:15:22;;;;;;;18.98;9.02;;;19.00;47.90;;;;;;4188361;28;20135;-52
2020/12/03 15:17:46;;;;;;;17.98;10.18;;;19.10;48.60;;;;;;4181960;28;20110;-51
2020/12/03 15:20:10;;;;;;;20.20;10.25;;;19.10;48.10;;;;;;4189309;28;20513;-51
2020/12/03 15:22:31;;;;;;;23.58;12.07;;;19.10;48.10;;;;;;4188594;28;20857;-52
2020/12/03 15:24:53;;;;;;;25.27;11.77;;;19.10;48.20;;;;;;4183810;28;20631;-48
2020/12/03 15:27:14;;;;;;;24.30;11.88;;;19.10;48.20;;;;;;4184883;28;20539;-50
2020/12/03 15:29:34;;;;;;;;;;;19.10;48.20;;;;;;4201883;28;21930;-50
2020/12/03 15:31:58;;;;;;;30.48;12.65;;;19.20;48.20;;;;;;4187247;28;19931;-52
2020/12/03 15:34:20;;;;;;;22.90;11.75;;;19.20;48.40;;;;;;4188868;28;20135;-52
2020/12/03 15:36:56;;;;;;;25.80;11.98;;;19.10;48.20;;;;;;4190888;28;20107;-57
2020/12/03 15:39:30;;;;;;;23.73;11.20;;;19.10;47.80;;;;;;4180879;28;20427;-54
2020/12/03 15:42:07;;;;;;;;;;;19.10;47.80;;;;;;4180732;28;20060;-54
2020/12/03 15:44:28;;;;;;;20.90;10.85;;;19.20;47.70;;;;;;4180547;28;19932;-54
2020/12/03 15:46:54;;;;;;;22.50;9.35;;;19.10;47.90;;;;;;4179924;28;20596;-54
2020/12/03 15:49:15;;;;;;;18.27;8.90;;;19.20;47.30;;;;;;4179949;28;20136;-54
2020/12/03 15:51:38;;;;;;;18.38;8.80;;;19.20;47.00;;;;;;4180092;28;20127;-54
2020/12/03 15:54:09;;;;;;;19.70;7.95;;;19.10;46.70;;;;;;4178918;28;20075;-54
2020/12/03 15:56:34;;;;;;;21.30;8.93;;;19.20;46.70;;;;;;4178665;28;20553;-54
2020/12/03 15:58:58;;;;;;;17.55;8.32;;;19.10;46.60;;;;;;4179199;28;20063;-54
2020/12/03 16:01:26;;;;;;;16.75;8.45;;;19.10;46.60;;;;;;4180458;28;20063;-54
2020/12/03 16:03:56;;;;;;;17.17;8.30;;;19.20;46.60;;;;;;4180115;28;20087;-54
2020/12/03 16:06:29;;;;;;;16.70;7.53;;;19.10;46.50;;;;;;4180350;28;20075;-54
2020/12/03 16:08:51;;;;;;;14.15;7.47;;;19.10;46.40;;;;;;4181255;28;20067;-54
2020/12/03 16:11:18;;;;;;;15.27;7.82;;;19.10;46.30;;;;;;4181259;28;20058;-54
2020/12/03 16:13:49;;;;;;;17.13;8.13;;;19.10;46.80;;;;;;4181020;28;20539;-54
2020/12/03 16:16:10;;;;;;;18.35;8.18;;;19.10;46.30;;;;;;4181159;28;20110;-54
2020/12/03 16:18:37;;;;;;;14.23;6.93;;;19.10;46.10;;;;;;4180072;28;20060;-54
2020/12/03 16:21:03;;;;;;;12.52;6.63;;;19.10;46.10;;;;;;4181099;28;20059;-54
2020/12/03 16:23:23;;;;;;;13.93;6.37;;;19.10;46.00;;;;;;4180536;28;20155;-54
2020/12/03 16:25:46;;;;;;;10.02;5.38;;;19.10;46.00;;;;;;4181058;28;20707;-54
2020/12/03 16:28:10;;;;;;;12.15;6.07;;;19.10;46.00;;;;;;4181166;28;20060;-54
2020/12/03 16:30:35;;;;;;;13.20;6.63;;;19.10;45.90;;;;;;4181106;28;20122;-54
2020/12/03 16:33:16;;;;;;;16.00;6.70;;;19.10;45.90;;;;;;4180124;28;20109;-54
2020/12/03 16:35:41;;;;;;;11.23;6.60;;;19.10;45.70;;;;;;4180143;28;20311;-54
2020/12/03 16:38:06;;;;;;;11.13;6.07;;;19.00;45.60;;;;;;4180984;28;20099;-54
2020/12/03 16:40:35;;;;;;;12.40;5.20;;;19.10;45.70;;;;;;4181059;28;20059;-54
2020/12/03 16:43:05;;;;;;;12.05;5.90;;;19.10;46.10;;;;;;4180866;28;20105;-54
2020/12/03 16:45:29;;;;;;;10.95;6.38;;;19.00;45.50;;;;;;4180310;28;20056;-54
2020/12/03 16:47:54;;;;;;;9.77;4.90;;;19.00;45.40;;;;;;4180784;28;20060;-54
2020/12/03 16:50:19;;;;;;;8.32;4.82;;;19.00;45.60;;;;;;4180926;28;20060;-54
2020/12/03 16:52:43;;;;;;;9.05;4.72;;;19.00;45.40;;;;;;4180773;28;20110;-54
2020/12/03 16:55:06;;;;;;;10.27;5.32;;;19.00;45.40;;;;;;4180760;28;20513;-54
2020/12/03 16:57:42;;;;;;;9.63;5.05;;;19.00;45.40;;;;;;4180878;28;20055;-54
2020/12/03 17:00:09;;;;;;;8.73;4.70;;;19.00;45.40;;;;;;4180747;28;20107;-54
2020/12/03 17:02:45;;;;;;;9.68;4.72;;;19.00;45.30;;;;;;4180597;28;20103;-54
2020/12/03 17:05:11;;;;;;;6.20;4.15;;;19.00;45.20;;;;;;4180602;28;20048;-54
2020/12/03 17:07:34;;;;;;;9.05;4.75;;;19.00;45.30;;;;;;4179942;28;20064;-54
2020/12/03 17:10:04;;;;;;;8.32;4.30;;;19.00;45.20;;;;;;4180719;28;20056;-54
2020/12/03 17:12:28;;;;;;;8.60;4.88;;;19.00;45.20;;;;;;4180408;28;20067;-54
2020/12/03 17:14:48;;;;;;;8.00;4.35;;;19.00;45.30;;;;;;4180772;28;20171;-54
2020/12/03 17:17:09;;;;;;;9.13;4.70;;;19.00;45.20;;;;;;4180592;28;20140;-54
2020/12/03 17:19:33;;;;;;;7.88;4.68;;;19.00;45.30;;;;;;4180917;28;20064;-54
2020/12/03 17:22:06;;;;;;;8.82;4.43;;;19.00;45.20;;;;;;4179355;28;20136;-54
2020/12/03 17:24:32;;;;;;;6.38;3.88;;;18.90;45.10;;;;;;4180607;28;20051;-54
2020/12/03 17:26:55;;;;;;;9.57;4.47;;;18.90;45.10;;;;;;4180103;28;20122;-54
2020/12/03 17:29:21;;;;;;;6.32;4.22;;;18.90;45.10;;;;;;4183466;28;20079;-50
2020/12/03 17:31:54;;;;;;;6.22;3.75;;;19.00;45.40;;;;;;4200651;28;20051;-48
2020/12/03 17:34:17;;;;;;;6.53;3.38;;;19.00;45.40;;;;;;4187731;28;20051;-49
2020/12/03 17:36:40;;;;;;;9.00;4.10;;;19.00;45.40;;;;;;4187504;28;20051;-48
2020/12/03 17:39:07;;;;;;;7.63;3.67;;;19.00;45.50;;;;;;4193495;28;20063;-51
2020/12/03 17:41:27;;;;;;;8.60;3.60;;;19.00;45.60;;;;;;4193003;28;20118;-51
2020/12/03 17:43:49;;;;;;;10.35;4.72;;;19.00;45.70;;;;;;4192405;28;20482;-54
2020/12/03 17:46:09;;;;;;;8.32;4.07;;;19.00;45.90;;;;;;4196590;28;20113;-54
2020/12/03 17:48:37;;;;;;;6.95;4.20;;;19.00;45.90;;;;;;4187026;28;20059;-54
2020/12/03 17:51:01;;;;;;;8.68;3.67;;;19.00;45.80;;;;;;4187383;28;20098;-54
2020/12/03 17:53:24;;;;;;;8.10;3.60;;;19.00;46.00;;;;;;4185332;28;20102;-54
2020/12/03 17:55:46;;;;;;;9.02;3.33;;;19.00;46.10;;;;;;4186818;28;20051;-54
2020/12/03 17:58:10;;;;;;;5.70;3.63;;;19.00;46.10;;;;;;4185769;28;20170;-54
2020/12/03 18:00:39;;;;;;;5.53;3.20;;;19.10;46.50;;;;;;4181758;28;20051;-45
2020/12/03 18:03:06;;;;;;;8.40;3.03;;;19.10;46.60;;;;;;4179465;28;20537;-46
2020/12/03 18:05:27;;;;;;;11.40;3.50;;;19.10;46.50;;;;;;4178353;28;20060;-46
2020/12/03 18:07:54;;;;;;;4.65;3.00;;;19.10;46.40;;;;;;4179270;28;20075;-46